Pagrindinis puslapis
METAR-TAF:

METAR-TAF

Oro uostai :

Selawik, Aliaska, Jungtinės Amerikos Valstijos

platuma: 66-37N, ilguma: 160-00W, Aukštis: 8 m

Dabartinis oras

Ataskaita buvo paskelbta 45 minutes, ne 07:10 UTC
Vėjas 15 kt iš Vakarų/Pietvakarių su gūsio iki 21 kt
Temperatūra -11°C
Drėgmė 85%
Slėgis 989 hPa
Matomumas: 3.2 km
Apsiniaukę ne aukštis 1600 ft
sniegas, rūkana

METAR: PASK 190710Z AUTO 25015G21KT 2SM -SN BR OVC016 M11/M13 A2921 RMK AO2 P0000 FZRANO

Laikas: 22:55 (07:55 UTC)


TAF: trūkstamas

Orai ataskaitas ir orų prognozės (METAR, TAF).

turimą stotys yra geltonos ir raudonos taškus žemėlapyje.

Perkelti pele per norėdami pamatyti stoties vardą.

Tada spustelėkite, norėdami matyti oro stebėjimo ir prognozės.

Norėdami pakeisti žemėlapį: spustelėkite ant žalios mygtukų su juodo kryžiaus žemyn,; žalią mygtuką su brūkšneliu, jei norite nutolinti; arba žalių rodyklių gretimoms žemėlapius.


METAR-TAF: